Time;durP1;ratioP1;P1;durP2;ratioP2;P2;SDS_P1;SDS_P2;PMS_P1;PMS_P2;Temp;Humidity;BMP_temperature;BMP_pressure;BME280_temperature;BME280_humidity;BME280_pressure;Samples;Min_cycle;Max_cycle;Signal;HPM_P1;HPM_P2
2022/01/11 00:01:09;;;;;;;15.27;9.00;;;2.20;84.80;;;;;;4911885;29;20459;-50
2022/01/11 00:03:37;;;;;;;13.03;9.23;;;2.20;84.80;;;;;;4921242;29;20488;-50
2022/01/11 00:06:28;;;;;;;14.03;8.60;;;2.10;84.80;;;;;;4923703;29;20509;-50
2022/01/11 00:09:00;;;;;;;13.77;9.27;;;2.10;85.00;;;;;;4922498;29;20494;-50
2022/01/11 00:11:28;;;;;;;15.00;8.60;;;2.10;85.00;;;;;;4925363;29;20465;-52
2022/01/11 00:13:54;;;;;;;18.63;9.97;;;2.10;85.10;;;;;;4924955;29;20474;-50
2022/01/11 00:16:21;;;;;;;14.73;8.17;;;2.00;85.00;;;;;;4928579;29;20549;-51
2022/01/11 00:18:48;;;;;;;16.47;9.07;;;2.00;85.10;;;;;;4912830;29;20460;-50
2022/01/11 00:21:15;;;;;;;14.27;10.07;;;2.00;85.10;;;;;;4921250;29;20831;-50
2022/01/11 00:26:10;;;;;;;14.17;10.43;;;2.00;85.00;;;;;;4927009;29;20460;-50
2022/01/11 00:28:36;;;;;;;17.33;10.10;;;2.00;84.80;;;;;;4927122;29;20472;-50
2022/01/11 00:31:06;;;;;;;13.73;8.93;;;2.00;84.90;;;;;;4925252;29;20463;-49
2022/01/11 00:33:38;;;;;;;14.70;10.33;;;2.00;85.00;;;;;;4914454;29;20550;-50
2022/01/11 00:36:06;;;;;;;13.93;8.57;;;2.00;85.20;;;;;;4924382;29;20456;-50
2022/01/11 00:38:36;;;;;;;13.20;9.00;;;2.00;85.10;;;;;;4927157;29;20582;-50
2022/01/11 00:41:12;;;;;;;15.63;10.27;;;2.00;85.00;;;;;;4912628;29;20471;-50
2022/01/11 00:43:41;;;;;;;16.40;10.00;;;2.00;85.00;;;;;;4910137;29;20499;-50
2022/01/11 00:46:11;;;;;;;13.90;9.00;;;1.90;85.10;;;;;;4927247;29;20880;-50
2022/01/11 00:48:40;;;;;;;14.77;9.00;;;1.90;85.20;;;;;;4912719;29;20995;-50
2022/01/11 00:51:09;;;;;;;13.13;8.40;;;1.90;85.10;;;;;;4924734;29;20536;-50
2022/01/11 00:53:36;;;;;;;21.80;12.97;;;1.90;85.00;;;;;;4926395;29;20468;-50
2022/01/11 00:56:03;;;;;;;13.60;10.33;;;1.80;85.00;;;;;;4924553;29;20961;-50
2022/01/11 00:58:29;;;;;;;15.03;9.60;;;1.80;85.30;;;;;;4925115;29;20464;-50
2022/01/11 01:00:56;;;;;;;15.50;9.50;;;1.80;85.30;;;;;;4924146;29;20474;-48
2022/01/11 01:03:24;;;;;;;12.23;8.80;;;1.80;85.40;;;;;;4921743;29;20590;-51
2022/01/11 01:05:51;;;;;;;14.47;8.80;;;1.70;85.40;;;;;;4912100;29;20466;-49
2022/01/11 01:08:19;;;;;;;13.10;8.57;;;1.70;85.40;;;;;;4911005;29;20457;-51
2022/01/11 01:10:47;;;;;;;11.87;8.67;;;1.70;85.30;;;;;;4917054;29;20464;-51
2022/01/11 01:13:22;;;;;;;12.20;7.87;;;1.80;85.30;;;;;;4909516;29;20479;-50
2022/01/11 01:15:52;;;;;;;14.53;8.67;;;1.80;85.10;;;;;;4926577;29;21003;-50
2022/01/11 01:18:22;;;;;;;12.83;8.47;;;1.80;85.20;;;;;;4926267;29;20457;-50
2022/01/11 01:20:51;;;;;;;11.67;8.00;;;1.70;85.10;;;;;;4912333;29;20965;-50
2022/01/11 01:23:19;;;;;;;14.00;9.20;;;1.70;85.20;;;;;;4924071;29;20506;-50
2022/01/11 01:25:47;;;;;;;16.17;8.90;;;1.70;85.20;;;;;;4924797;29;20462;-51
2022/01/11 01:28:15;;;;;;;25.73;9.70;;;1.60;85.40;;;;;;4921910;29;20544;-51
2022/01/11 01:30:42;;;;;;;14.70;8.53;;;1.60;85.50;;;;;;4922533;29;20540;-50
2022/01/11 01:33:09;;;;;;;16.70;10.83;;;1.70;85.50;;;;;;4911030;29;21017;-50
2022/01/11 01:35:44;;;;;;;13.10;7.50;;;1.70;85.40;;;;;;4921516;29;20455;-49
2022/01/11 01:38:12;;;;;;;11.07;7.40;;;1.70;85.40;;;;;;4927155;29;20542;-49
2022/01/11 01:40:46;;;;;;;9.13;5.77;;;1.70;85.30;;;;;;4931417;29;20475;-50
2022/01/11 01:43:14;;;;;;;11.90;7.60;;;1.70;85.30;;;;;;4927611;29;20500;-51
2022/01/11 01:45:43;;;;;;;13.50;7.63;;;1.70;85.10;;;;;;4928776;29;20555;-49
2022/01/11 01:48:12;;;;;;;16.00;8.83;;;1.60;85.10;;;;;;4926648;29;20460;-50
2022/01/11 01:50:40;;;;;;;45.77;28.67;;;1.60;85.30;;;;;;4931397;29;20473;-49
2022/01/11 01:53:10;;;;;;;27.53;15.07;;;1.50;85.40;;;;;;4927692;29;20471;-50
2022/01/11 01:55:39;;;;;;;14.73;9.50;;;1.50;85.50;;;;;;4915280;29;20832;-50
2022/01/11 01:58:06;;;;;;;15.70;8.33;;;1.60;85.40;;;;;;4926336;29;20471;-50
2022/01/11 02:00:40;;;;;;;13.90;7.37;;;1.50;85.40;;;;;;4937801;28;20973;-51
2022/01/11 02:03:11;;;;;;;15.10;8.60;;;1.50;85.60;;;;;;4931457;29;21053;-50
2022/01/11 02:05:40;;;;;;;12.73;8.30;;;1.50;85.70;;;;;;4930816;29;20471;-50
2022/01/11 02:08:08;;;;;;;16.20;8.50;;;1.50;85.60;;;;;;4925335;29;20455;-51
2022/01/11 02:10:37;;;;;;;12.13;7.97;;;1.50;85.70;;;;;;4928480;29;20960;-50
2022/01/11 02:13:05;;;;;;;16.90;9.50;;;1.50;85.80;;;;;;4917145;29;21000;-50
2022/01/11 02:15:32;;;;;;;12.80;8.10;;;1.50;85.80;;;;;;4910875;29;21108;-50
2022/01/11 02:18:11;;;;;;;13.33;10.03;;;1.50;86.00;;;;;;4928624;29;20876;-51
2022/01/11 02:20:44;;;;;;;14.73;8.47;;;1.60;86.00;;;;;;4928087;29;20468;-51
2022/01/11 02:23:11;;;;;;;14.77;9.27;;;1.70;85.90;;;;;;4928978;29;20527;-51
2022/01/11 02:25:39;;;;;;;17.30;9.70;;;1.60;85.80;;;;;;4916187;29;20943;-51
2022/01/11 02:28:08;;;;;;;14.73;8.87;;;1.60;86.10;;;;;;4926755;29;20553;-50
2022/01/11 02:30:35;;;;;;;15.07;8.90;;;1.60;86.30;;;;;;4927121;29;21060;-51
2022/01/11 02:33:06;;;;;;;10.10;7.47;;;1.60;86.30;;;;;;4924588;29;20555;-50
2022/01/11 02:35:33;;;;;;;13.43;8.43;;;1.60;86.40;;;;;;4925547;29;20467;-51
2022/01/11 02:38:00;;;;;;;15.67;10.10;;;1.60;86.50;;;;;;4931218;29;20463;-51
2022/01/11 02:40:27;;;;;;;13.13;8.17;;;1.60;86.30;;;;;;4931818;29;20982;-49
2022/01/11 02:42:54;;;;;;;12.53;9.10;;;1.70;86.30;;;;;;4927078;29;20506;-50
2022/01/11 02:45:22;;;;;;;16.73;8.33;;;1.70;86.50;;;;;;4923783;29;20711;-51
2022/01/11 02:47:49;;;;;;;15.33;8.90;;;1.70;86.40;;;;;;4923693;29;20989;-51
2022/01/11 02:50:19;;;;;;;14.87;8.57;;;1.70;86.40;;;;;;4924174;29;20464;-50
2022/01/11 02:52:46;;;;;;;10.77;7.40;;;1.80;86.20;;;;;;4928004;29;20585;-50
2022/01/11 02:55:15;;;;;;;13.87;8.07;;;1.80;86.10;;;;;;4909761;29;20476;-50
2022/01/11 02:57:42;;;;;;;14.47;8.37;;;1.80;86.00;;;;;;4928757;29;20483;-50
2022/01/11 03:00:16;;;;;;;17.73;8.70;;;1.80;86.00;;;;;;4907555;29;20485;-50
2022/01/11 03:02:43;;;;;;;12.87;8.13;;;1.80;86.20;;;;;;4917160;29;20471;-51
2022/01/11 03:05:11;;;;;;;12.97;7.77;;;1.80;86.20;;;;;;4925417;29;21024;-50
2022/01/11 03:07:39;;;;;;;11.67;7.33;;;1.80;86.00;;;;;;4915614;29;20473;-50
2022/01/11 03:10:32;;;;;;;12.90;7.13;;;1.80;85.90;;;;;;4911147;29;20456;-50
2022/01/11 03:13:01;;;;;;;12.33;6.77;;;1.80;85.90;;;;;;4924693;29;20481;-50
2022/01/11 03:15:27;;;;;;;10.80;7.20;;;1.80;85.70;;;;;;4909888;29;20473;-49
2022/01/11 03:17:55;;;;;;;12.37;7.00;;;1.80;85.80;;;;;;4926802;29;20912;-52
2022/01/11 03:20:22;;;;;;;9.47;7.23;;;1.80;85.60;;;;;;4926059;29;20474;-50
2022/01/11 03:22:49;;;;;;;10.00;6.80;;;1.80;85.60;;;;;;4927545;29;20499;-50
2022/01/11 03:25:17;;;;;;;12.17;7.77;;;1.70;85.70;;;;;;4924455;29;20462;-49
2022/01/11 03:27:44;;;;;;;11.20;7.63;;;1.70;85.80;;;;;;4927472;29;20504;-49
2022/01/11 03:30:12;;;;;;;18.13;8.23;;;1.70;85.60;;;;;;4924525;29;20464;-49
2022/01/11 03:32:39;;;;;;;13.90;7.80;;;1.70;85.50;;;;;;4928736;29;20474;-48
2022/01/11 03:35:09;;;;;;;10.63;7.03;;;1.70;85.50;;;;;;4914902;29;20518;-48
2022/01/11 03:37:36;;;;;;;15.30;7.80;;;1.60;85.60;;;;;;4916498;29;20469;-49
2022/01/11 03:40:10;;;;;;;14.23;8.73;;;1.60;85.50;;;;;;4928417;29;20555;-52
2022/01/11 03:42:38;;;;;;;14.70;8.07;;;1.60;85.70;;;;;;4914603;29;20467;-52
2022/01/11 03:45:06;;;;;;;14.20;8.13;;;1.50;86.00;;;;;;4925290;29;20881;-51
2022/01/11 03:47:33;;;;;;;16.07;8.80;;;1.50;86.20;;;;;;4925749;29;20469;-51
2022/01/11 03:50:01;;;;;;;12.87;8.73;;;1.60;86.20;;;;;;4927783;29;20466;-52
2022/01/11 03:52:27;;;;;;;14.17;8.47;;;1.60;86.10;;;;;;4909169;29;20892;-52
2022/01/11 03:57:28;;;;;;;11.90;8.20;;;1.70;85.90;;;;;;4924831;29;20472;-52
2022/01/11 03:59:56;;;;;;;16.40;8.20;;;1.70;86.00;;;;;;4924868;29;20471;-52
2022/01/11 04:02:23;;;;;;;14.40;8.00;;;1.70;86.00;;;;;;4924395;29;20464;-51
2022/01/11 04:04:54;;;;;;;11.70;7.90;;;1.80;85.90;;;;;;4923735;29;21049;-52
2022/01/11 04:07:26;;;;;;;15.50;8.60;;;1.70;86.00;;;;;;4925132;29;21025;-51
2022/01/11 04:09:55;;;;;;;12.83;8.07;;;1.70;86.10;;;;;;4926240;29;20819;-53
2022/01/11 04:12:23;;;;;;;11.43;8.33;;;1.70;86.20;;;;;;4925866;29;20465;-52
2022/01/11 04:14:50;;;;;;;15.97;9.10;;;1.70;86.30;;;;;;4926171;29;20549;-52
2022/01/11 04:17:17;;;;;;;13.50;7.83;;;1.80;86.30;;;;;;4922687;29;20464;-52
2022/01/11 04:19:45;;;;;;;12.70;7.97;;;1.70;86.40;;;;;;4913671;29;20468;-52
2022/01/11 04:22:11;;;;;;;15.00;9.00;;;1.70;86.40;;;;;;4919805;29;20465;-52
2022/01/11 04:24:38;;;;;;;15.23;9.80;;;1.70;86.50;;;;;;4928630;29;20496;-52
2022/01/11 04:27:06;;;;;;;15.43;8.90;;;1.80;86.30;;;;;;4919277;29;20935;-51
2022/01/11 04:29:33;;;;;;;11.97;8.37;;;1.80;86.40;;;;;;4922335;29;20467;-52
2022/01/11 04:32:00;;;;;;;13.83;7.73;;;1.80;86.40;;;;;;4923683;29;20487;-51
2022/01/11 04:34:28;;;;;;;12.90;8.47;;;1.80;86.50;;;;;;4910678;29;20884;-52
2022/01/11 04:36:55;;;;;;;13.13;8.77;;;1.80;86.40;;;;;;4913554;29;20559;-52
2022/01/11 04:39:23;;;;;;;11.70;8.00;;;1.80;86.50;;;;;;4917423;29;20950;-51
2022/01/11 04:41:50;;;;;;;11.10;8.17;;;1.90;86.40;;;;;;4919658;29;20468;-52
2022/01/11 04:44:17;;;;;;;15.60;8.70;;;1.80;86.50;;;;;;4927861;29;20859;-51
2022/01/11 04:46:44;;;;;;;14.10;7.70;;;1.90;86.50;;;;;;4923337;29;20467;-52
2022/01/11 04:49:11;;;;;;;12.57;7.60;;;1.90;86.40;;;;;;4924809;29;20460;-52
2022/01/11 04:51:38;;;;;;;15.03;8.13;;;1.90;86.50;;;;;;4925979;29;21039;-52
2022/01/11 04:54:05;;;;;;;11.47;7.90;;;1.90;86.50;;;;;;4911923;29;20480;-52
2022/01/11 04:56:31;;;;;;;14.53;8.40;;;1.90;86.60;;;;;;4924401;29;20467;-52
2022/01/11 04:58:59;;;;;;;10.90;7.50;;;1.90;86.50;;;;;;4923344;29;20470;-52
2022/01/11 05:01:28;;;;;;;9.70;6.60;;;2.00;86.50;;;;;;4923613;29;20483;-52
2022/01/11 05:03:55;;;;;;;12.30;7.90;;;1.90;86.60;;;;;;4926349;29;21098;-52
2022/01/11 05:06:23;;;;;;;13.77;8.00;;;1.90;86.60;;;;;;4898814;29;20961;-49
2022/01/11 05:08:50;;;;;;;12.23;7.80;;;2.00;86.60;;;;;;4924320;29;20468;-49
2022/01/11 05:11:17;;;;;;;14.20;7.70;;;2.00;86.40;;;;;;4923879;29;20467;-48
2022/01/11 05:13:44;;;;;;;9.40;6.80;;;2.00;86.50;;;;;;4909527;29;20464;-49
2022/01/11 05:16:10;;;;;;;13.67;7.50;;;2.00;86.50;;;;;;4924053;29;20452;-48
2022/01/11 05:18:38;;;;;;;12.03;6.90;;;2.00;86.40;;;;;;4912006;29;20472;-49
2022/01/11 05:21:07;;;;;;;12.30;7.37;;;2.00;86.40;;;;;;4910405;29;20464;-48
2022/01/11 05:23:34;;;;;;;11.73;7.70;;;2.00;86.40;;;;;;4925326;29;20987;-49
2022/01/11 05:26:02;;;;;;;13.70;7.30;;;2.10;86.40;;;;;;4913189;29;20849;-49
2022/01/11 05:28:30;;;;;;;11.20;7.30;;;2.10;86.20;;;;;;4920698;29;20500;-48
2022/01/11 05:30:56;;;;;;;11.83;8.37;;;2.10;86.30;;;;;;4911146;29;20940;-48
2022/01/11 05:33:23;;;;;;;11.97;7.57;;;2.10;86.20;;;;;;4922050;29;20527;-49
2022/01/11 05:35:50;;;;;;;11.77;8.07;;;2.10;86.30;;;;;;4922002;29;20474;-47
2022/01/11 05:38:17;;;;;;;10.53;7.37;;;2.20;86.30;;;;;;4926006;29;20481;-49
2022/01/11 05:40:44;;;;;;;10.30;7.27;;;2.10;86.30;;;;;;4928880;29;20467;-48
2022/01/11 05:43:12;;;;;;;10.97;7.70;;;2.10;86.40;;;;;;4921983;29;20834;-48
2022/01/11 05:45:39;;;;;;;13.50;7.03;;;2.20;86.20;;;;;;4923194;29;20884;-49
2022/01/11 05:48:06;;;;;;;12.17;7.60;;;2.10;86.30;;;;;;4921179;29;20778;-49
2022/01/11 05:50:34;;;;;;;12.47;8.10;;;2.20;85.80;;;;;;4923239;29;20536;-48
2022/01/11 05:53:01;;;;;;;12.67;7.37;;;2.20;85.90;;;;;;4923934;29;20465;-48
2022/01/11 05:55:27;;;;;;;11.27;8.23;;;2.20;85.70;;;;;;4923658;29;20472;-48
2022/01/11 05:57:55;;;;;;;11.17;7.00;;;2.10;85.90;;;;;;4924103;29;20498;-49
2022/01/11 06:00:21;;;;;;;10.50;7.13;;;2.10;86.10;;;;;;4925724;29;21028;-48
2022/01/11 06:02:52;;;;;;;11.90;7.87;;;2.10;86.30;;;;;;4940234;28;21352;-48
2022/01/11 06:05:19;;;;;;;12.83;8.37;;;2.10;86.20;;;;;;4925217;29;20612;-49
2022/01/11 06:07:46;;;;;;;11.70;7.70;;;2.20;86.20;;;;;;4927546;29;20472;-48
2022/01/11 06:10:14;;;;;;;13.30;8.47;;;2.20;86.20;;;;;;4926989;29;20475;-48
2022/01/11 06:12:41;;;;;;;10.37;7.20;;;2.20;86.00;;;;;;4924452;29;20464;-48
2022/01/11 06:15:08;;;;;;;13.50;7.53;;;2.30;86.00;;;;;;4919698;29;20818;-49
2022/01/11 06:17:35;;;;;;;10.27;7.00;;;2.20;85.90;;;;;;4920260;29;20896;-49
2022/01/11 06:20:05;;;;;;;13.07;7.53;;;2.20;85.90;;;;;;4919329;29;20459;-49
2022/01/11 06:22:32;;;;;;;11.53;7.93;;;2.20;85.80;;;;;;4921700;29;20484;-49
2022/01/11 06:25:03;;;;;;;9.57;7.60;;;2.20;86.00;;;;;;4925034;29;20492;-48
2022/01/11 06:27:32;;;;;;;14.00;8.27;;;2.20;85.90;;;;;;4909852;29;20452;-49
2022/01/11 06:29:59;;;;;;;12.77;7.27;;;2.20;86.10;;;;;;4923376;29;20452;-50
2022/01/11 06:32:25;;;;;;;9.30;6.30;;;2.20;86.00;;;;;;4923181;29;20883;-49
2022/01/11 06:34:53;;;;;;;16.57;6.50;;;2.20;85.90;;;;;;4929884;29;20468;-49
2022/01/11 06:37:20;;;;;;;12.60;7.60;;;2.20;85.80;;;;;;4926301;29;20759;-48
2022/01/11 06:39:47;;;;;;;7.87;6.90;;;2.20;85.80;;;;;;4929238;29;21368;-49
2022/01/11 06:42:14;;;;;;;9.83;6.57;;;2.20;85.80;;;;;;4924268;29;20468;-48
2022/01/11 06:44:42;;;;;;;9.97;7.30;;;2.20;85.70;;;;;;4921469;29;20502;-48
2022/01/11 06:47:10;;;;;;;12.73;8.13;;;2.20;85.50;;;;;;4930146;29;20558;-48
2022/01/11 06:49:37;;;;;;;12.77;7.20;;;2.20;85.40;;;;;;4922693;29;20930;-48
2022/01/11 06:52:04;;;;;;;12.27;6.77;;;2.10;85.40;;;;;;4925510;29;20459;-48
2022/01/11 06:54:32;;;;;;;13.67;6.87;;;2.10;85.50;;;;;;4921360;29;20511;-49
2022/01/11 06:56:59;;;;;;;10.10;6.80;;;2.10;85.50;;;;;;4922674;29;20465;-48
2022/01/11 06:59:25;;;;;;;12.17;8.10;;;2.10;85.60;;;;;;4921227;29;20476;-49
2022/01/11 07:01:52;;;;;;;10.00;7.83;;;2.00;85.80;;;;;;4911800;29;20474;-49
2022/01/11 07:04:19;;;;;;;11.20;7.33;;;2.10;85.80;;;;;;4924137;29;20546;-49
2022/01/11 07:06:45;;;;;;;12.53;7.43;;;2.00;85.80;;;;;;4925112;29;20499;-49
2022/01/11 07:09:13;;;;;;;12.07;8.27;;;2.00;85.80;;;;;;4924963;29;20511;-49
2022/01/11 07:11:40;;;;;;;11.77;7.67;;;2.00;85.80;;;;;;4929007;29;20471;-48
2022/01/11 07:14:07;;;;;;;15.30;9.17;;;2.00;85.60;;;;;;4925958;29;20471;-49
2022/01/11 07:16:34;;;;;;;13.87;8.47;;;2.00;86.10;;;;;;4926185;29;20464;-48
2022/01/11 07:19:01;;;;;;;11.70;8.20;;;2.00;86.20;;;;;;4928390;29;20603;-49
2022/01/11 07:21:28;;;;;;;16.67;9.43;;;2.00;86.00;;;;;;4926408;29;20474;-49
2022/01/11 07:23:55;;;;;;;18.83;9.10;;;2.00;86.00;;;;;;4928742;29;21091;-49
2022/01/11 07:26:22;;;;;;;11.73;8.10;;;2.00;85.90;;;;;;4925055;29;20451;-49
2022/01/11 07:28:48;;;;;;;14.80;9.60;;;2.00;85.90;;;;;;4921558;29;20473;-49
2022/01/11 07:31:15;;;;;;;13.37;8.87;;;2.00;85.80;;;;;;4912822;29;21022;-49
2022/01/11 07:33:42;;;;;;;13.40;9.33;;;2.00;86.00;;;;;;4920412;29;20491;-48
2022/01/11 07:36:09;;;;;;;13.70;8.10;;;2.00;86.10;;;;;;4926894;29;20551;-48
2022/01/11 07:38:37;;;;;;;15.63;8.87;;;2.00;86.20;;;;;;4911461;29;20459;-48
2022/01/11 07:41:05;;;;;;;9.40;8.30;;;2.00;86.10;;;;;;4928937;29;20459;-48
2022/01/11 07:43:31;;;;;;;13.33;10.13;;;2.00;86.40;;;;;;4912407;29;20596;-49
2022/01/11 07:45:58;;;;;;;15.83;8.90;;;2.00;86.30;;;;;;4923726;29;20993;-49
2022/01/11 07:48:26;;;;;;;15.50;10.03;;;2.00;86.20;;;;;;4913102;29;20488;-52
2022/01/11 07:50:53;;;;;;;14.63;9.07;;;2.00;86.30;;;;;;4912642;29;21044;-52
2022/01/11 07:53:19;;;;;;;14.03;9.60;;;2.00;86.30;;;;;;4920098;29;20463;-52
2022/01/11 07:55:47;;;;;;;13.67;8.70;;;2.00;86.50;;;;;;4922709;29;20525;-51
2022/01/11 07:58:14;;;;;;;11.10;7.13;;;2.00;86.50;;;;;;4920492;29;20457;-51
2022/01/11 08:00:40;;;;;;;12.37;8.23;;;2.00;86.50;;;;;;4912603;29;20471;-52
2022/01/11 08:03:07;;;;;;;13.40;8.10;;;2.00;86.40;;;;;;4920213;29;20499;-52
2022/01/11 08:05:34;;;;;;;15.67;7.60;;;2.00;86.20;;;;;;4915237;29;20502;-53
2022/01/11 08:08:02;;;;;;;10.97;8.10;;;2.00;86.10;;;;;;4927332;29;20478;-52
2022/01/11 08:10:30;;;;;;;14.60;8.50;;;2.00;86.20;;;;;;4922146;29;20472;-48
2022/01/11 08:12:56;;;;;;;14.27;8.40;;;2.00;86.30;;;;;;4922665;29;20464;-49
2022/01/11 08:15:23;;;;;;;12.33;8.03;;;2.10;86.20;;;;;;4923161;29;20829;-50
2022/01/11 08:17:50;;;;;;;12.40;8.43;;;2.10;86.00;;;;;;4920657;29;20537;-49
2022/01/11 08:20:17;;;;;;;13.33;8.90;;;2.20;85.50;;;;;;4924469;29;20930;-49
2022/01/11 08:22:48;;;;;;;12.60;7.83;;;2.20;85.20;;;;;;4924162;29;20494;-49
2022/01/11 08:25:15;;;;;;;14.00;7.60;;;2.20;85.30;;;;;;4919922;29;20928;-50
2022/01/11 08:27:42;;;;;;;10.53;8.00;;;2.20;85.20;;;;;;4924209;29;20470;-50
2022/01/11 08:30:09;;;;;;;10.40;7.53;;;2.20;85.00;;;;;;4927269;29;20472;-51
2022/01/11 08:32:36;;;;;;;14.13;8.53;;;2.20;84.80;;;;;;4937604;28;20500;-50
2022/01/11 08:35:04;;;;;;;11.47;8.00;;;2.20;84.50;;;;;;4919600;29;20473;-50
2022/01/11 08:37:30;;;;;;;11.30;8.63;;;2.20;84.80;;;;;;4911931;29;21093;-50
2022/01/11 08:39:57;;;;;;;13.20;8.50;;;2.10;85.00;;;;;;4919801;29;20465;-51
2022/01/11 08:42:25;;;;;;;14.93;8.47;;;2.10;85.00;;;;;;4931563;28;20465;-51
2022/01/11 08:44:52;;;;;;;10.63;8.33;;;2.10;84.50;;;;;;4919097;29;20857;-51
2022/01/11 08:47:19;;;;;;;13.00;6.70;;;2.10;84.80;;;;;;4923968;29;20452;-50
2022/01/11 08:49:46;;;;;;;15.23;6.47;;;2.10;84.90;;;;;;4927067;29;20829;-51
2022/01/11 08:52:14;;;;;;;8.20;6.97;;;2.10;85.00;;;;;;4922477;29;20473;-51
2022/01/11 08:54:44;;;;;;;6.80;5.43;;;2.10;84.80;;;;;;4924117;29;20501;-51
2022/01/11 08:57:11;;;;;;;8.30;6.30;;;2.10;84.90;;;;;;4922521;29;20465;-51
2022/01/11 08:59:38;;;;;;;14.43;6.37;;;2.10;84.40;;;;;;4921461;29;20810;-50
2022/01/11 09:02:05;;;;;;;10.40;6.60;;;2.10;84.40;;;;;;4921775;29;20441;-50
2022/01/11 09:04:32;;;;;;;13.80;7.40;;;2.10;84.90;;;;;;4923035;29;20488;-50
2022/01/11 09:06:59;;;;;;;13.63;6.33;;;2.10;84.20;;;;;;4924427;29;20943;-50
2022/01/11 09:09:28;;;;;;;14.50;7.30;;;2.10;84.50;;;;;;4927001;29;20456;-51
2022/01/11 09:11:54;;;;;;;9.30;6.23;;;2.10;85.00;;;;;;4936431;29;20834;-50
2022/01/11 09:14:21;;;;;;;14.10;7.23;;;2.10;85.20;;;;;;4921348;29;20460;-49
2022/01/11 09:16:48;;;;;;;8.40;5.53;;;2.20;84.70;;;;;;4920554;29;20468;-51
2022/01/11 09:19:18;;;;;;;9.27;6.53;;;2.20;84.40;;;;;;4913264;29;20486;-50
2022/01/11 09:21:46;;;;;;;10.17;6.50;;;2.20;84.50;;;;;;4920271;29;22219;-50
2022/01/11 09:24:19;;;;;;;9.90;6.63;;;2.20;84.60;;;;;;4932805;28;21009;-50
2022/01/11 09:26:53;;;;;;;8.77;6.13;;;2.20;84.80;;;;;;4905718;29;20487;-51
2022/01/11 09:29:20;;;;;;;9.63;6.10;;;2.20;84.50;;;;;;4919343;29;20487;-50
2022/01/11 09:31:48;;;;;;;11.20;6.03;;;2.20;84.80;;;;;;4920096;29;20962;-51
2022/01/11 09:34:15;;;;;;;10.60;6.77;;;2.30;85.00;;;;;;4920203;29;20455;-51
2022/01/11 09:36:42;;;;;;;10.07;6.50;;;2.30;84.80;;;;;;4922248;29;20468;-51
2022/01/11 09:39:08;;;;;;;10.93;7.07;;;2.30;84.90;;;;;;4921554;29;20455;-51
2022/01/11 09:41:35;;;;;;;7.03;6.13;;;2.30;85.20;;;;;;4923068;29;20961;-51
2022/01/11 09:44:03;;;;;;;9.60;6.13;;;2.40;85.30;;;;;;4920922;29;21277;-51
2022/01/11 09:46:30;;;;;;;11.97;7.23;;;2.40;84.70;;;;;;4908724;29;20591;-51
2022/01/11 09:48:57;;;;;;;10.03;6.83;;;2.50;85.00;;;;;;4924268;29;20463;-52
2022/01/11 09:51:24;;;;;;;8.73;6.53;;;2.50;84.40;;;;;;4923059;29;20460;-51
2022/01/11 09:53:51;;;;;;;8.60;6.60;;;2.50;84.70;;;;;;4916942;29;20461;-51
2022/01/11 09:56:18;;;;;;;9.23;6.70;;;2.50;85.00;;;;;;4923403;29;20467;-50
2022/01/11 09:58:50;;;;;;;11.20;6.87;;;2.50;85.00;;;;;;4924505;29;20469;-51
2022/01/11 10:01:17;;;;;;;12.80;6.73;;;2.60;84.80;;;;;;4924837;29;20472;-50
2022/01/11 10:04:04;;;;;;;14.73;8.57;;;2.60;84.80;;;;;;4913494;29;21042;-50
2022/01/11 10:06:33;;;;;;;11.50;7.90;;;2.70;84.90;;;;;;4927153;29;20900;-51
2022/01/11 10:09:16;;;;;;;12.67;8.07;;;2.70;84.90;;;;;;4926645;29;20459;-51
2022/01/11 10:11:46;;;;;;;9.97;7.47;;;2.80;84.90;;;;;;4925226;29;20460;-51
2022/01/11 10:14:21;;;;;;;12.20;6.80;;;2.90;84.80;;;;;;4922039;29;20460;-51
2022/01/11 10:16:49;;;;;;;15.00;7.70;;;2.90;84.10;;;;;;4925624;29;20474;-51
2022/01/11 10:19:26;;;;;;;11.87;8.10;;;2.90;84.30;;;;;;4921088;29;20459;-51
2022/01/11 10:21:54;;;;;;;11.17;8.10;;;2.90;84.80;;;;;;4925578;29;20952;-51
2022/01/11 10:24:24;;;;;;;12.80;8.50;;;3.00;84.70;;;;;;4925514;29;20495;-50
2022/01/11 10:26:53;;;;;;;13.20;8.37;;;3.00;84.70;;;;;;4940891;28;20949;-51
2022/01/11 10:29:27;;;;;;;11.73;7.80;;;3.10;84.40;;;;;;4924664;29;20610;-51
2022/01/11 10:31:55;;;;;;;14.00;7.80;;;3.10;84.50;;;;;;4928742;29;20460;-51
2022/01/11 10:34:32;;;;;;;11.17;7.13;;;3.20;83.40;;;;;;4919899;29;21004;-50
2022/01/11 10:37:02;;;;;;;15.33;8.37;;;3.20;83.90;;;;;;4923893;29;20458;-52
2022/01/11 10:39:31;;;;;;;12.37;8.73;;;3.30;84.10;;;;;;4922854;29;20468;-52
2022/01/11 10:42:00;;;;;;;12.93;8.20;;;3.30;84.30;;;;;;4923616;29;20468;-52
2022/01/11 10:45:05;;;;;;;13.10;9.07;;;3.40;84.10;;;;;;4922549;29;20479;-51
2022/01/11 10:47:36;;;;;;;13.57;8.90;;;3.40;84.20;;;;;;4866274;29;20473;-51
2022/01/11 10:50:05;;;;;;;11.30;8.10;;;3.40;84.50;;;;;;4864913;29;20547;-52
2022/01/11 10:52:34;;;;;;;11.93;8.37;;;3.50;84.30;;;;;;4884552;29;21016;-52
2022/01/11 10:55:05;;;;;;;11.33;8.30;;;3.50;84.30;;;;;;4924588;29;20470;-51
2022/01/11 10:57:37;;;;;;;15.10;9.77;;;3.60;83.50;;;;;;4928720;29;20872;-52
2022/01/11 11:00:10;;;;;;;13.67;9.83;;;3.70;83.30;;;;;;4924124;29;20597;-52
2022/01/11 11:02:39;;;;;;;12.63;9.13;;;3.70;83.00;;;;;;4925421;29;20495;-52
2022/01/11 11:05:23;;;;;;;12.57;8.60;;;3.70;83.30;;;;;;4924385;29;20520;-51
2022/01/11 11:08:05;;;;;;;11.87;8.37;;;3.80;82.90;;;;;;4915225;29;20883;-51
2022/01/11 11:10:37;;;;;;;10.87;8.90;;;3.80;83.20;;;;;;4925588;29;20490;-53
2022/01/11 11:13:06;;;;;;;14.10;9.03;;;3.80;82.50;;;;;;4920664;29;20452;-52
2022/01/11 11:15:36;;;;;;;16.13;9.43;;;3.90;83.00;;;;;;4923814;29;20559;-51
2022/01/11 11:18:24;;;;;;;11.87;8.00;;;3.90;83.00;;;;;;4913147;29;20467;-52
2022/01/11 11:20:51;;;;;;;12.13;8.57;;;3.90;83.00;;;;;;4921096;29;20467;-51
2022/01/11 11:23:21;;;;;;;10.27;7.80;;;3.90;83.20;;;;;;4912636;29;20490;-52
2022/01/11 11:25:48;;;;;;;13.17;9.30;;;3.90;83.40;;;;;;4904208;29;21028;-52
2022/01/11 11:28:15;;;;;;;11.73;8.90;;;3.90;83.70;;;;;;4922282;29;20913;-52
2022/01/11 11:30:48;;;;;;;13.73;8.60;;;4.00;83.50;;;;;;4921765;29;20896;-52
2022/01/11 11:33:16;;;;;;;12.77;8.57;;;4.10;83.50;;;;;;4926676;29;20459;-52
2022/01/11 11:35:49;;;;;;;15.07;8.80;;;4.20;83.10;;;;;;4924874;29;20482;-52
2022/01/11 11:38:17;;;;;;;13.90;8.60;;;4.20;83.00;;;;;;4920825;29;20484;-51
2022/01/11 11:40:53;;;;;;;13.40;10.43;;;4.30;82.60;;;;;;4922238;29;20463;-52
2022/01/11 11:43:22;;;;;;;12.77;9.07;;;4.30;82.90;;;;;;4920732;29;21035;-52
2022/01/11 11:45:50;;;;;;;13.77;9.87;;;4.30;82.90;;;;;;4921663;29;20536;-52
2022/01/11 11:48:20;;;;;;;12.03;8.73;;;4.40;82.70;;;;;;4923261;29;20487;-52
2022/01/11 11:50:52;;;;;;;14.10;9.67;;;4.40;82.70;;;;;;4922132;29;20466;-51
2022/01/11 11:53:31;;;;;;;13.63;9.93;;;4.50;82.90;;;;;;4919041;29;20992;-52
2022/01/11 11:56:19;;;;;;;15.30;9.97;;;4.50;82.40;;;;;;4925592;29;20553;-51
2022/01/11 11:58:58;;;;;;;14.00;9.30;;;4.50;82.70;;;;;;4933902;28;20974;-52
2022/01/11 12:01:47;;;;;;;15.10;9.83;;;4.50;82.70;;;;;;4925161;29;20460;-51
2022/01/11 12:04:17;;;;;;;12.77;10.20;;;4.60;83.10;;;;;;4919787;29;20579;-51
2022/01/11 12:06:45;;;;;;;21.47;14.10;;;4.60;83.20;;;;;;4925119;29;20574;-51
2022/01/11 12:09:17;;;;;;;18.80;12.40;;;4.70;83.10;;;;;;4922446;29;20887;-51
2022/01/11 12:11:50;;;;;;;12.60;10.00;;;4.80;82.70;;;;;;4920973;29;20789;-52
2022/01/11 12:14:34;;;;;;;15.50;10.57;;;4.80;82.00;;;;;;4920664;29;21005;-51
2022/01/11 12:17:11;;;;;;;18.00;10.50;;;4.80;82.40;;;;;;4921330;29;20471;-52
2022/01/11 12:19:41;;;;;;;20.13;13.50;;;4.80;82.60;;;;;;4920937;29;20461;-52
2022/01/11 12:22:08;;;;;;;18.73;13.77;;;4.90;82.70;;;;;;4917896;29;21190;-51
2022/01/11 12:24:46;;;;;;;18.20;13.27;;;5.00;81.40;;;;;;4922298;29;20514;-52
2022/01/11 12:27:15;;;;;;;15.53;11.00;;;5.00;81.20;;;;;;4908372;29;20502;-52
2022/01/11 12:30:05;;;;;;;18.33;11.17;;;5.00;81.40;;;;;;4923027;29;20555;-52
2022/01/11 12:32:56;;;;;;;14.77;10.00;;;5.10;81.80;;;;;;4920251;29;20548;-52
2022/01/11 12:35:23;;;;;;;16.47;12.00;;;5.00;81.80;;;;;;4923941;29;20497;-52
2022/01/11 12:38:06;;;;;;;23.13;11.37;;;5.10;81.70;;;;;;4923858;29;20508;-52
2022/01/11 12:40:40;;;;;;;16.50;9.73;;;5.10;81.90;;;;;;4921844;29;20499;-52
2022/01/11 12:43:16;;;;;;;17.37;11.60;;;5.20;81.70;;;;;;4909750;29;20517;-52
2022/01/11 12:46:02;;;;;;;14.27;10.97;;;5.20;81.60;;;;;;4918460;29;20496;-52
2022/01/11 12:48:45;;;;;;;15.73;10.00;;;5.20;81.90;;;;;;4921624;29;20468;-51
2022/01/11 12:51:42;;;;;;;16.40;10.93;;;5.20;82.00;;;;;;4920624;29;20520;-52
2022/01/11 12:54:19;;;;;;;14.10;10.97;;;5.20;82.10;;;;;;4923740;29;20982;-52
2022/01/11 12:56:54;;;;;;;17.00;11.10;;;5.30;82.00;;;;;;4911428;29;20559;-51
2022/01/11 12:59:25;;;;;;;17.77;11.87;;;5.40;82.00;;;;;;4911555;29;20559;-51
2022/01/11 13:02:11;;;;;;;18.03;11.30;;;5.40;81.80;;;;;;4922294;29;20822;-52